sensor_id;sensor_type;location;lat;lon;timestamp;pressure;altitude;pressure_sealevel;temperature;humidity
38267;BME280;24063;51.794;19.578;2023-02-20T00:00:37;98659.09;;;-0.44;80.50
38267;BME280;24063;51.794;19.578;2023-02-20T00:01:56;98656.10;;;-0.43;80.16
38267;BME280;24063;51.794;19.578;2023-02-20T00:02:58;98654.52;;;-0.42;80.10
38267;BME280;24063;51.794;19.578;2023-02-20T00:04:00;98658.97;;;-0.41;80.25
38267;BME280;24063;51.794;19.578;2023-02-20T00:05:02;98659.33;;;-0.39;79.96
38267;BME280;24063;51.794;19.578;2023-02-20T00:06:04;98655.70;;;-0.40;79.76
38267;BME280;24063;51.794;19.578;2023-02-20T00:07:06;98656.20;;;-0.40;80.02
38267;BME280;24063;51.794;19.578;2023-02-20T00:08:08;98653.91;;;-0.40;80.18
38267;BME280;24063;51.794;19.578;2023-02-20T00:09:10;98650.55;;;-0.40;80.13
38267;BME280;24063;51.794;19.578;2023-02-20T00:10:12;98651.87;;;-0.40;80.22
38267;BME280;24063;51.794;19.578;2023-02-20T00:11:14;98654.64;;;-0.41;80.17
38267;BME280;24063;51.794;19.578;2023-02-20T00:12:15;98657.73;;;-0.42;80.13
38267;BME280;24063;51.794;19.578;2023-02-20T00:13:17;98655.20;;;-0.42;80.03
38267;BME280;24063;51.794;19.578;2023-02-20T00:14:20;98650.95;;;-0.42;80.08
38267;BME280;24063;51.794;19.578;2023-02-20T00:15:22;98649.45;;;-0.40;80.10
38267;BME280;24063;51.794;19.578;2023-02-20T00:16:24;98643.77;;;-0.40;79.93
38267;BME280;24063;51.794;19.578;2023-02-20T00:17:26;98643.15;;;-0.40;80.03
38267;BME280;24063;51.794;19.578;2023-02-20T00:18:28;98646.75;;;-0.38;80.02
38267;BME280;24063;51.794;19.578;2023-02-20T00:19:31;98646.34;;;-0.37;80.02
38267;BME280;24063;51.794;19.578;2023-02-20T00:20:32;98645.81;;;-0.36;79.99
38267;BME280;24063;51.794;19.578;2023-02-20T00:21:34;98646.85;;;-0.34;80.11
38267;BME280;24063;51.794;19.578;2023-02-20T00:22:36;98644.06;;;-0.33;80.04
38267;BME280;24063;51.794;19.578;2023-02-20T00:23:38;98643.20;;;-0.32;79.97
38267;BME280;24063;51.794;19.578;2023-02-20T00:24:40;98650.11;;;-0.32;79.90
38267;BME280;24063;51.794;19.578;2023-02-20T00:25:42;98656.85;;;-0.31;79.88
38267;BME280;24063;51.794;19.578;2023-02-20T00:26:45;98657.06;;;-0.31;79.82
38267;BME280;24063;51.794;19.578;2023-02-20T00:27:48;98660.06;;;-0.30;79.57
38267;BME280;24063;51.794;19.578;2023-02-20T00:28:49;98658.40;;;-0.29;79.57
38267;BME280;24063;51.794;19.578;2023-02-20T00:29:51;98664.94;;;-0.29;79.38
38267;BME280;24063;51.794;19.578;2023-02-20T00:30:53;98660.52;;;-0.28;79.23
38267;BME280;24063;51.794;19.578;2023-02-20T00:31:56;98658.85;;;-0.29;79.25
38267;BME280;24063;51.794;19.578;2023-02-20T00:32:58;98660.16;;;-0.28;79.48
38267;BME280;24063;51.794;19.578;2023-02-20T00:34:01;98659.35;;;-0.29;79.61
38267;BME280;24063;51.794;19.578;2023-02-20T00:35:04;98665.07;;;-0.27;79.75
38267;BME280;24063;51.794;19.578;2023-02-20T00:36:21;98663.52;;;-0.28;79.75
38267;BME280;24063;51.794;19.578;2023-02-20T00:37:23;98660.98;;;-0.26;79.58
38267;BME280;24063;51.794;19.578;2023-02-20T00:38:25;98663.61;;;-0.26;79.50
38267;BME280;24063;51.794;19.578;2023-02-20T00:39:27;98664.53;;;-0.25;79.51
38267;BME280;24063;51.794;19.578;2023-02-20T00:40:30;98660.33;;;-0.24;79.65
38267;BME280;24063;51.794;19.578;2023-02-20T00:41:32;98662.98;;;-0.24;79.74
38267;BME280;24063;51.794;19.578;2023-02-20T00:42:34;98652.65;;;-0.23;79.68
38267;BME280;24063;51.794;19.578;2023-02-20T00:43:36;98658.25;;;-0.23;79.44
38267;BME280;24063;51.794;19.578;2023-02-20T00:44:37;98652.61;;;-0.23;79.52
38267;BME280;24063;51.794;19.578;2023-02-20T00:45:40;98656.17;;;-0.23;79.52
38267;BME280;24063;51.794;19.578;2023-02-20T00:46:42;98661.11;;;-0.23;79.52
38267;BME280;24063;51.794;19.578;2023-02-20T00:47:46;98661.30;;;-0.25;79.53
38267;BME280;24063;51.794;19.578;2023-02-20T00:48:48;98665.27;;;-0.25;79.74
38267;BME280;24063;51.794;19.578;2023-02-20T00:50:12;98667.60;;;-0.25;80.09
38267;BME280;24063;51.794;19.578;2023-02-20T00:51:14;98668.98;;;-0.25;80.08
38267;BME280;24063;51.794;19.578;2023-02-20T00:52:16;98674.35;;;-0.27;80.13
38267;BME280;24063;51.794;19.578;2023-02-20T00:53:18;98676.44;;;-0.28;80.05
38267;BME280;24063;51.794;19.578;2023-02-20T00:54:20;98675.77;;;-0.28;80.28
38267;BME280;24063;51.794;19.578;2023-02-20T00:55:22;98672.69;;;-0.29;80.37
38267;BME280;24063;51.794;19.578;2023-02-20T00:56:24;98670.04;;;-0.30;80.43
38267;BME280;24063;51.794;19.578;2023-02-20T00:57:26;98670.36;;;-0.30;80.66
38267;BME280;24063;51.794;19.578;2023-02-20T00:58:28;98671.08;;;-0.30;80.81
38267;BME280;24063;51.794;19.578;2023-02-20T00:59:30;98669.11;;;-0.30;80.88
38267;BME280;24063;51.794;19.578;2023-02-20T01:00:32;98674.73;;;-0.30;81.03
38267;BME280;24063;51.794;19.578;2023-02-20T01:01:34;98668.65;;;-0.31;81.05
38267;BME280;24063;51.794;19.578;2023-02-20T01:02:36;98664.45;;;-0.31;81.05
38267;BME280;24063;51.794;19.578;2023-02-20T01:03:38;98663.51;;;-0.32;80.91
38267;BME280;24063;51.794;19.578;2023-02-20T01:04:41;98665.46;;;-0.32;80.99
38267;BME280;24063;51.794;19.578;2023-02-20T01:05:43;98660.11;;;-0.33;81.12
38267;BME280;24063;51.794;19.578;2023-02-20T01:06:45;98658.35;;;-0.33;81.10
38267;BME280;24063;51.794;19.578;2023-02-20T01:07:47;98659.27;;;-0.33;81.22
38267;BME280;24063;51.794;19.578;2023-02-20T01:08:49;98665.67;;;-0.34;81.31
38267;BME280;24063;51.794;19.578;2023-02-20T01:09:54;98656.61;;;-0.34;81.53
38267;BME280;24063;51.794;19.578;2023-02-20T01:10:56;98653.25;;;-0.36;81.65
38267;BME280;24063;51.794;19.578;2023-02-20T01:11:58;98655.54;;;-0.37;81.51
38267;BME280;24063;51.794;19.578;2023-02-20T01:12:59;98650.18;;;-0.40;81.67
38267;BME280;24063;51.794;19.578;2023-02-20T01:14:01;98656.76;;;-0.41;81.67
38267;BME280;24063;51.794;19.578;2023-02-20T01:15:06;98661.21;;;-0.43;81.80
38267;BME280;24063;51.794;19.578;2023-02-20T01:16:08;98662.39;;;-0.45;81.89
38267;BME280;24063;51.794;19.578;2023-02-20T01:17:11;98654.35;;;-0.44;82.28
38267;BME280;24063;51.794;19.578;2023-02-20T01:18:13;98652.63;;;-0.46;82.22
38267;BME280;24063;51.794;19.578;2023-02-20T01:19:15;98652.50;;;-0.45;82.07
38267;BME280;24063;51.794;19.578;2023-02-20T01:20:17;98655.81;;;-0.46;82.22
38267;BME280;24063;51.794;19.578;2023-02-20T01:21:19;98650.55;;;-0.45;82.28
38267;BME280;24063;51.794;19.578;2023-02-20T01:22:22;98651.57;;;-0.46;82.07
38267;BME280;24063;51.794;19.578;2023-02-20T01:23:25;98645.84;;;-0.47;82.38
38267;BME280;24063;51.794;19.578;2023-02-20T01:24:27;98646.74;;;-0.49;82.38
38267;BME280;24063;51.794;19.578;2023-02-20T01:25:29;98646.45;;;-0.49;82.33
38267;BME280;24063;51.794;19.578;2023-02-20T01:26:30;98644.34;;;-0.49;82.56
38267;BME280;24063;51.794;19.578;2023-02-20T01:27:32;98640.33;;;-0.51;82.63
38267;BME280;24063;51.794;19.578;2023-02-20T01:28:34;98645.89;;;-0.50;82.39
38267;BME280;24063;51.794;19.578;2023-02-20T01:29:39;98647.39;;;-0.51;82.43
38267;BME280;24063;51.794;19.578;2023-02-20T01:30:41;98647.68;;;-0.51;82.53
38267;BME280;24063;51.794;19.578;2023-02-20T01:31:48;98645.76;;;-0.52;82.51
38267;BME280;24063;51.794;19.578;2023-02-20T01:32:50;98639.11;;;-0.53;82.86
38267;BME280;24063;51.794;19.578;2023-02-20T01:33:52;98638.20;;;-0.55;82.74
38267;BME280;24063;51.794;19.578;2023-02-20T01:34:54;98634.97;;;-0.54;82.64
38267;BME280;24063;51.794;19.578;2023-02-20T01:35:56;98629.91;;;-0.56;82.76
38267;BME280;24063;51.794;19.578;2023-02-20T01:36:58;98631.81;;;-0.58;82.85
38267;BME280;24063;51.794;19.578;2023-02-20T01:38:01;98637.91;;;-0.58;82.87
38267;BME280;24063;51.794;19.578;2023-02-20T01:39:07;98634.27;;;-0.60;82.60
38267;BME280;24063;51.794;19.578;2023-02-20T01:40:19;98625.33;;;-0.62;82.97
38267;BME280;24063;51.794;19.578;2023-02-20T01:41:24;98627.86;;;-0.61;82.81
38267;BME280;24063;51.794;19.578;2023-02-20T01:42:29;98626.18;;;-0.62;83.02
38267;BME280;24063;51.794;19.578;2023-02-20T01:43:32;98632.75;;;-0.62;83.01
38267;BME280;24063;51.794;19.578;2023-02-20T01:44:35;98633.86;;;-0.62;83.03
38267;BME280;24063;51.794;19.578;2023-02-20T01:45:38;98631.52;;;-0.63;83.03
38267;BME280;24063;51.794;19.578;2023-02-20T01:46:47;98632.33;;;-0.64;82.94
38267;BME280;24063;51.794;19.578;2023-02-20T01:47:52;98635.85;;;-0.65;83.06
38267;BME280;24063;51.794;19.578;2023-02-20T01:49:02;98636.02;;;-0.66;83.11
38267;BME280;24063;51.794;19.578;2023-02-20T01:50:08;98640.55;;;-0.67;83.18
38267;BME280;24063;51.794;19.578;2023-02-20T01:51:11;98643.41;;;-0.68;83.42
38267;BME280;24063;51.794;19.578;2023-02-20T01:52:18;98640.86;;;-0.68;83.37
38267;BME280;24063;51.794;19.578;2023-02-20T01:53:24;98639.96;;;-0.71;83.40
38267;BME280;24063;51.794;19.578;2023-02-20T01:54:28;98637.31;;;-0.71;83.50
38267;BME280;24063;51.794;19.578;2023-02-20T01:55:44;98638.66;;;-0.72;83.67
38267;BME280;24063;51.794;19.578;2023-02-20T01:56:49;98636.56;;;-0.72;83.67
38267;BME280;24063;51.794;19.578;2023-02-20T01:58:07;98632.48;;;-0.72;83.53
38267;BME280;24063;51.794;19.578;2023-02-20T01:59:11;98624.98;;;-0.73;83.80
38267;BME280;24063;51.794;19.578;2023-02-20T02:00:17;98630.53;;;-0.72;83.80
38267;BME280;24063;51.794;19.578;2023-02-20T02:01:20;98625.10;;;-0.72;84.20
38267;BME280;24063;51.794;19.578;2023-02-20T02:02:24;98619.88;;;-0.73;84.17
38267;BME280;24063;51.794;19.578;2023-02-20T02:03:33;98623.10;;;-0.73;84.36
38267;BME280;24063;51.794;19.578;2023-02-20T02:04:39;98622.64;;;-0.77;84.62
38267;BME280;24063;51.794;19.578;2023-02-20T02:05:48;98623.20;;;-0.77;84.62
38267;BME280;24063;51.794;19.578;2023-02-20T02:06:53;98622.71;;;-0.79;84.81
38267;BME280;24063;51.794;19.578;2023-02-20T02:07:58;98619.57;;;-0.78;84.99
38267;BME280;24063;51.794;19.578;2023-02-20T02:09:12;98621.21;;;-0.77;85.14
38267;BME280;24063;51.794;19.578;2023-02-20T02:10:27;98618.44;;;-0.77;85.13
38267;BME280;24063;51.794;19.578;2023-02-20T02:11:31;98621.91;;;-0.78;85.27
38267;BME280;24063;51.794;19.578;2023-02-20T02:12:34;98622.48;;;-0.80;85.31
38267;BME280;24063;51.794;19.578;2023-02-20T02:13:38;98622.68;;;-0.80;85.42
38267;BME280;24063;51.794;19.578;2023-02-20T02:14:40;98623.94;;;-0.80;85.40
38267;BME280;24063;51.794;19.578;2023-02-20T02:15:42;98626.92;;;-0.80;85.73
38267;BME280;24063;51.794;19.578;2023-02-20T02:22:59;98622.92;;;-0.77;86.25
38267;BME280;24063;51.794;19.578;2023-02-20T02:25:54;98624.73;;;-0.78;86.45
38267;BME280;24063;51.794;19.578;2023-02-20T02:27:29;98623.77;;;-0.80;86.49
38267;BME280;24063;51.794;19.578;2023-02-20T02:30:37;98606.67;;;-0.80;86.80
38267;BME280;24063;51.794;19.578;2023-02-20T02:33:39;98585.69;;;-0.81;86.92
38267;BME280;24063;51.794;19.578;2023-02-20T02:37:54;98582.73;;;-0.76;86.65
38267;BME280;24063;51.794;19.578;2023-02-20T02:39:20;98580.76;;;-0.76;86.84
38267;BME280;24063;51.794;19.578;2023-02-20T02:40:41;98571.73;;;-0.74;86.64
38267;BME280;24063;51.794;19.578;2023-02-20T02:42:01;98577.73;;;-0.72;86.64
38267;BME280;24063;51.794;19.578;2023-02-20T02:43:28;98580.84;;;-0.72;86.43
38267;BME280;24063;51.794;19.578;2023-02-20T02:44:53;98585.34;;;-0.71;86.12
38267;BME280;24063;51.794;19.578;2023-02-20T02:46:07;98585.05;;;-0.70;85.98
38267;BME280;24063;51.794;19.578;2023-02-20T02:47:30;98584.64;;;-0.70;86.02
38267;BME280;24063;51.794;19.578;2023-02-20T02:48:40;98583.06;;;-0.70;86.19
38267;BME280;24063;51.794;19.578;2023-02-20T02:50:05;98582.68;;;-0.71;86.08
38267;BME280;24063;51.794;19.578;2023-02-20T02:51:16;98583.98;;;-0.72;86.15
38267;BME280;24063;51.794;19.578;2023-02-20T02:52:22;98581.83;;;-0.71;85.98
38267;BME280;24063;51.794;19.578;2023-02-20T02:54:13;98583.38;;;-0.70;85.73
38267;BME280;24063;51.794;19.578;2023-02-20T02:55:28;98584.14;;;-0.69;85.79
38267;BME280;24063;51.794;19.578;2023-02-20T02:56:35;98575.21;;;-0.68;85.72
38267;BME280;24063;51.794;19.578;2023-02-20T02:57:38;98574.61;;;-0.68;85.62
38267;BME280;24063;51.794;19.578;2023-02-20T02:58:40;98578.52;;;-0.68;85.48
38267;BME280;24063;51.794;19.578;2023-02-20T02:59:42;98574.92;;;-0.68;85.32
38267;BME280;24063;51.794;19.578;2023-02-20T03:00:59;98571.98;;;-0.68;85.39
38267;BME280;24063;51.794;19.578;2023-02-20T03:02:06;98574.11;;;-0.68;85.23
38267;BME280;24063;51.794;19.578;2023-02-20T03:03:29;98569.29;;;-0.69;85.32
38267;BME280;24063;51.794;19.578;2023-02-20T03:04:35;98570.27;;;-0.68;85.46
38267;BME280;24063;51.794;19.578;2023-02-20T03:06:00;98568.15;;;-0.66;85.35
38267;BME280;24063;51.794;19.578;2023-02-20T03:07:10;98567.15;;;-0.64;84.80
38267;BME280;24063;51.794;19.578;2023-02-20T03:08:26;98560.84;;;-0.65;84.87
38267;BME280;24063;51.794;19.578;2023-02-20T03:09:40;98564.52;;;-0.68;84.83
38267;BME280;24063;51.794;19.578;2023-02-20T03:10:43;98570.19;;;-0.68;84.67
38267;BME280;24063;51.794;19.578;2023-02-20T03:11:47;98564.58;;;-0.68;84.59
38267;BME280;24063;51.794;19.578;2023-02-20T03:13:01;98564.58;;;-0.68;84.61
38267;BME280;24063;51.794;19.578;2023-02-20T03:15:44;98567.39;;;-0.63;84.35
38267;BME280;24063;51.794;19.578;2023-02-20T03:17:02;98567.63;;;-0.62;84.11
38267;BME280;24063;51.794;19.578;2023-02-20T03:18:23;98563.38;;;-0.60;84.14
38267;BME280;24063;51.794;19.578;2023-02-20T03:19:43;98561.89;;;-0.60;84.00
38267;BME280;24063;51.794;19.578;2023-02-20T03:20:53;98567.57;;;-0.60;83.95
38267;BME280;24063;51.794;19.578;2023-02-20T03:21:59;98564.69;;;-0.61;83.96
38267;BME280;24063;51.794;19.578;2023-02-20T03:23:05;98560.83;;;-0.60;84.02
38267;BME280;24063;51.794;19.578;2023-02-20T03:24:12;98560.75;;;-0.60;83.94
38267;BME280;24063;51.794;19.578;2023-02-20T03:25:27;98561.33;;;-0.58;83.82
38267;BME280;24063;51.794;19.578;2023-02-20T03:26:34;98557.77;;;-0.57;83.99
38267;BME280;24063;51.794;19.578;2023-02-20T03:27:53;98560.47;;;-0.56;83.89
38267;BME280;24063;51.794;19.578;2023-02-20T03:29:02;98562.88;;;-0.60;84.00
38267;BME280;24063;51.794;19.578;2023-02-20T03:30:19;98561.98;;;-0.62;84.06
38267;BME280;24063;51.794;19.578;2023-02-20T03:31:49;98558.92;;;-0.62;84.14
38267;BME280;24063;51.794;19.578;2023-02-20T03:33:37;98558.42;;;-0.59;84.31
38267;BME280;24063;51.794;19.578;2023-02-20T03:35:02;98548.92;;;-0.57;84.47
38267;BME280;24063;51.794;19.578;2023-02-20T03:37:09;98548.35;;;-0.54;84.37
38267;BME280;24063;51.794;19.578;2023-02-20T03:38:31;98553.77;;;-0.52;84.36
38267;BME280;24063;51.794;19.578;2023-02-20T03:39:59;98551.94;;;-0.53;84.63
38267;BME280;24063;51.794;19.578;2023-02-20T03:41:24;98552.15;;;-0.52;84.73
38267;BME280;24063;51.794;19.578;2023-02-20T03:42:52;98549.60;;;-0.51;84.67
38267;BME280;24063;51.794;19.578;2023-02-20T03:44:17;98551.65;;;-0.51;84.90
38267;BME280;24063;51.794;19.578;2023-02-20T03:45:22;98550.41;;;-0.51;85.06
38267;BME280;24063;51.794;19.578;2023-02-20T03:46:31;98554.39;;;-0.53;85.11
38267;BME280;24063;51.794;19.578;2023-02-20T03:47:38;98555.56;;;-0.55;85.41
38267;BME280;24063;51.794;19.578;2023-02-20T03:49:06;98553.23;;;-0.56;85.61
38267;BME280;24063;51.794;19.578;2023-02-20T03:50:29;98554.72;;;-0.55;85.86
38267;BME280;24063;51.794;19.578;2023-02-20T03:51:51;98553.98;;;-0.52;85.94
38267;BME280;24063;51.794;19.578;2023-02-20T03:53:04;98551.24;;;-0.50;85.97
38267;BME280;24063;51.794;19.578;2023-02-20T03:54:07;98548.55;;;-0.50;86.06
38267;BME280;24063;51.794;19.578;2023-02-20T03:55:11;98545.56;;;-0.51;86.18
38267;BME280;24063;51.794;19.578;2023-02-20T03:56:19;98544.54;;;-0.50;86.27
38267;BME280;24063;51.794;19.578;2023-02-20T03:57:32;98537.23;;;-0.50;86.46
38267;BME280;24063;51.794;19.578;2023-02-20T03:58:40;98535.71;;;-0.48;86.49
38267;BME280;24063;51.794;19.578;2023-02-20T03:59:52;98536.33;;;-0.53;86.77
38267;BME280;24063;51.794;19.578;2023-02-20T04:00:59;98533.10;;;-0.51;87.01
38267;BME280;24063;51.794;19.578;2023-02-20T04:02:18;98535.60;;;-0.50;87.16
38267;BME280;24063;51.794;19.578;2023-02-20T04:03:28;98529.69;;;-0.49;87.28
38267;BME280;24063;51.794;19.578;2023-02-20T04:04:44;98527.92;;;-0.50;87.44
38267;BME280;24063;51.794;19.578;2023-02-20T04:05:50;98528.86;;;-0.51;87.53
38267;BME280;24063;51.794;19.578;2023-02-20T04:07:00;98527.03;;;-0.49;87.73
38267;BME280;24063;51.794;19.578;2023-02-20T04:08:13;98528.66;;;-0.46;87.85
38267;BME280;24063;51.794;19.578;2023-02-20T04:09:22;98526.41;;;-0.42;87.76
38267;BME280;24063;51.794;19.578;2023-02-20T04:10:29;98528.20;;;-0.41;87.87
38267;BME280;24063;51.794;19.578;2023-02-20T04:12:00;98527.83;;;-0.42;87.99
38267;BME280;24063;51.794;19.578;2023-02-20T04:13:06;98524.93;;;-0.42;88.00
38267;BME280;24063;51.794;19.578;2023-02-20T04:14:12;98528.52;;;-0.41;88.24
38267;BME280;24063;51.794;19.578;2023-02-20T04:15:19;98520.59;;;-0.40;88.33
38267;BME280;24063;51.794;19.578;2023-02-20T04:16:24;98521.81;;;-0.38;88.39
38267;BME280;24063;51.794;19.578;2023-02-20T04:17:30;98516.76;;;-0.36;88.37
38267;BME280;24063;51.794;19.578;2023-02-20T04:18:33;98516.63;;;-0.35;88.53
38267;BME280;24063;51.794;19.578;2023-02-20T04:19:37;98511.84;;;-0.33;88.51
38267;BME280;24063;51.794;19.578;2023-02-20T04:20:40;98516.64;;;-0.34;88.46
38267;BME280;24063;51.794;19.578;2023-02-20T04:21:58;98513.92;;;-0.36;88.71
38267;BME280;24063;51.794;19.578;2023-02-20T04:23:12;98513.44;;;-0.35;88.75
38267;BME280;24063;51.794;19.578;2023-02-20T04:24:25;98510.51;;;-0.34;88.95
38267;BME280;24063;51.794;19.578;2023-02-20T04:25:44;98510.00;;;-0.33;89.04
38267;BME280;24063;51.794;19.578;2023-02-20T04:26:48;98511.59;;;-0.30;89.28
38267;BME280;24063;51.794;19.578;2023-02-20T04:27:51;98507.30;;;-0.29;89.40
38267;BME280;24063;51.794;19.578;2023-02-20T04:28:53;98510.00;;;-0.25;89.18
38267;BME280;24063;51.794;19.578;2023-02-20T04:29:55;98504.85;;;-0.24;89.21
38267;BME280;24063;51.794;19.578;2023-02-20T04:30:58;98504.95;;;-0.22;89.21
38267;BME280;24063;51.794;19.578;2023-02-20T04:32:00;98504.39;;;-0.21;89.09
38267;BME280;24063;51.794;19.578;2023-02-20T04:33:09;98498.61;;;-0.17;89.09
38267;BME280;24063;51.794;19.578;2023-02-20T04:34:12;98496.97;;;-0.13;88.92
38267;BME280;24063;51.794;19.578;2023-02-20T04:35:17;98494.20;;;-0.10;88.93
38267;BME280;24063;51.794;19.578;2023-02-20T04:36:24;98492.90;;;-0.08;88.93
38267;BME280;24063;51.794;19.578;2023-02-20T04:37:28;98494.64;;;-0.11;88.90
38267;BME280;24063;51.794;19.578;2023-02-20T04:38:31;98495.58;;;-0.15;88.95
38267;BME280;24063;51.794;19.578;2023-02-20T04:39:34;98489.80;;;-0.18;89.29
38267;BME280;24063;51.794;19.578;2023-02-20T04:40:37;98495.60;;;-0.20;89.49
38267;BME280;24063;51.794;19.578;2023-02-20T04:41:39;98499.33;;;-0.20;89.52
38267;BME280;24063;51.794;19.578;2023-02-20T04:42:41;98497.28;;;-0.19;89.72
38267;BME280;24063;51.794;19.578;2023-02-20T04:43:42;98494.82;;;-0.19;89.66
38267;BME280;24063;51.794;19.578;2023-02-20T04:44:44;98493.30;;;-0.20;89.75
38267;BME280;24063;51.794;19.578;2023-02-20T04:45:46;98490.73;;;-0.20;89.97
38267;BME280;24063;51.794;19.578;2023-02-20T04:46:48;98490.70;;;-0.20;90.09
38267;BME280;24063;51.794;19.578;2023-02-20T04:47:50;98487.91;;;-0.20;90.15
38267;BME280;24063;51.794;19.578;2023-02-20T04:48:52;98488.20;;;-0.21;90.08
38267;BME280;24063;51.794;19.578;2023-02-20T04:49:54;98485.27;;;-0.22;90.21
38267;BME280;24063;51.794;19.578;2023-02-20T04:50:56;98484.89;;;-0.22;90.12
38267;BME280;24063;51.794;19.578;2023-02-20T04:51:58;98485.52;;;-0.22;90.43
38267;BME280;24063;51.794;19.578;2023-02-20T04:53:01;98482.66;;;-0.22;90.26
38267;BME280;24063;51.794;19.578;2023-02-20T04:54:03;98483.63;;;-0.21;90.40
38267;BME280;24063;51.794;19.578;2023-02-20T04:55:05;98487.27;;;-0.22;90.45
38267;BME280;24063;51.794;19.578;2023-02-20T04:56:07;98488.29;;;-0.22;90.59
38267;BME280;24063;51.794;19.578;2023-02-20T04:57:11;98488.71;;;-0.22;90.81
38267;BME280;24063;51.794;19.578;2023-02-20T04:58:13;98485.83;;;-0.21;90.98
38267;BME280;24063;51.794;19.578;2023-02-20T04:59:24;98481.55;;;-0.21;90.97
38267;BME280;24063;51.794;19.578;2023-02-20T05:00:27;98480.44;;;-0.19;91.02
38267;BME280;24063;51.794;19.578;2023-02-20T05:01:29;98480.19;;;-0.17;90.90
38267;BME280;24063;51.794;19.578;2023-02-20T05:02:31;98479.94;;;-0.15;91.01
38267;BME280;24063;51.794;19.578;2023-02-20T05:03:33;98479.61;;;-0.14;91.17
38267;BME280;24063;51.794;19.578;2023-02-20T05:04:34;98476.99;;;-0.14;91.14
38267;BME280;24063;51.794;19.578;2023-02-20T05:05:36;98479.68;;;-0.12;90.98
38267;BME280;24063;51.794;19.578;2023-02-20T05:06:44;98480.71;;;-0.10;91.17
38267;BME280;24063;51.794;19.578;2023-02-20T05:07:47;98481.39;;;-0.09;91.20
38267;BME280;24063;51.794;19.578;2023-02-20T05:08:49;98483.88;;;-0.08;91.08
38267;BME280;24063;51.794;19.578;2023-02-20T05:09:51;98482.24;;;-0.07;91.24
38267;BME280;24063;51.794;19.578;2023-02-20T05:10:52;98482.86;;;-0.07;91.20
38267;BME280;24063;51.794;19.578;2023-02-20T05:11:54;98484.73;;;-0.06;91.36
38267;BME280;24063;51.794;19.578;2023-02-20T05:12:56;98486.20;;;-0.07;91.11
38267;BME280;24063;51.794;19.578;2023-02-20T05:13:59;98486.12;;;-0.06;91.19
38267;BME280;24063;51.794;19.578;2023-02-20T05:15:01;98482.16;;;-0.05;91.09
38267;BME280;24063;51.794;19.578;2023-02-20T05:16:02;98484.33;;;-0.05;91.12
38267;BME280;24063;51.794;19.578;2023-02-20T05:17:05;98485.59;;;-0.06;91.16
38267;BME280;24063;51.794;19.578;2023-02-20T05:18:07;98481.45;;;-0.04;91.22
38267;BME280;24063;51.794;19.578;2023-02-20T05:19:08;98479.29;;;-0.03;91.31
38267;BME280;24063;51.794;19.578;2023-02-20T05:20:11;98470.46;;;-0.03;91.20
38267;BME280;24063;51.794;19.578;2023-02-20T05:21:14;98467.91;;;-0.02;91.22
38267;BME280;24063;51.794;19.578;2023-02-20T05:22:35;98463.71;;;-0.03;91.35
38267;BME280;24063;51.794;19.578;2023-02-20T05:23:37;98463.17;;;-0.03;91.35
38267;BME280;24063;51.794;19.578;2023-02-20T05:24:42;98458.52;;;-0.03;91.43
38267;BME280;24063;51.794;19.578;2023-02-20T05:25:44;98462.69;;;-0.03;91.48
38267;BME280;24063;51.794;19.578;2023-02-20T05:26:45;98453.66;;;-0.04;91.55
38267;BME280;24063;51.794;19.578;2023-02-20T05:27:47;98460.13;;;-0.03;91.43
38267;BME280;24063;51.794;19.578;2023-02-20T05:28:49;98464.78;;;-0.05;91.62
38267;BME280;24063;51.794;19.578;2023-02-20T05:29:56;98461.77;;;-0.06;91.63
38267;BME280;24063;51.794;19.578;2023-02-20T05:30:58;98458.05;;;-0.08;91.94
38267;BME280;24063;51.794;19.578;2023-02-20T05:32:01;98456.13;;;-0.08;92.05
38267;BME280;24063;51.794;19.578;2023-02-20T05:33:03;98449.84;;;-0.08;91.88
38267;BME280;24063;51.794;19.578;2023-02-20T05:34:06;98447.02;;;-0.09;92.29
38267;BME280;24063;51.794;19.578;2023-02-20T05:35:08;98450.13;;;-0.08;92.46
38267;BME280;24063;51.794;19.578;2023-02-20T05:36:09;98444.92;;;-0.08;92.38
38267;BME280;24063;51.794;19.578;2023-02-20T05:37:15;98444.71;;;-0.08;92.49
38267;BME280;24063;51.794;19.578;2023-02-20T05:38:18;98453.63;;;-0.06;92.19
38267;BME280;24063;51.794;19.578;2023-02-20T05:39:20;98452.41;;;-0.07;92.53
38267;BME280;24063;51.794;19.578;2023-02-20T05:40:22;98452.69;;;-0.06;92.60
38267;BME280;24063;51.794;19.578;2023-02-20T05:41:23;98453.11;;;-0.07;92.62
38267;BME280;24063;51.794;19.578;2023-02-20T05:42:25;98444.77;;;-0.06;92.61
38267;BME280;24063;51.794;19.578;2023-02-20T05:43:27;98443.00;;;-0.07;92.76
38267;BME280;24063;51.794;19.578;2023-02-20T05:44:29;98442.17;;;-0.06;92.76
38267;BME280;24063;51.794;19.578;2023-02-20T05:45:31;98441.77;;;-0.07;92.87
38267;BME280;24063;51.794;19.578;2023-02-20T05:46:38;98437.52;;;-0.08;92.86
38267;BME280;24063;51.794;19.578;2023-02-20T05:47:41;98437.81;;;-0.07;92.97
38267;BME280;24063;51.794;19.578;2023-02-20T05:48:47;98441.68;;;-0.06;93.09
38267;BME280;24063;51.794;19.578;2023-02-20T05:49:50;98442.88;;;-0.06;93.05
38267;BME280;24063;51.794;19.578;2023-02-20T05:50:52;98441.11;;;-0.06;93.12
38267;BME280;24063;51.794;19.578;2023-02-20T05:51:56;98441.07;;;-0.04;93.10
38267;BME280;24063;51.794;19.578;2023-02-20T05:52:58;98436.25;;;-0.04;93.24
38267;BME280;24063;51.794;19.578;2023-02-20T05:54:00;98438.23;;;-0.03;93.17
38267;BME280;24063;51.794;19.578;2023-02-20T05:55:02;98436.55;;;-0.02;93.03
38267;BME280;24063;51.794;19.578;2023-02-20T05:56:04;98438.85;;;-0.01;93.13
38267;BME280;24063;51.794;19.578;2023-02-20T05:57:08;98435.46;;;-0.01;93.25
38267;BME280;24063;51.794;19.578;2023-02-20T05:58:11;98434.61;;;-0.01;93.29
38267;BME280;24063;51.794;19.578;2023-02-20T05:59:17;98433.30;;;-0.00;93.23
38267;BME280;24063;51.794;19.578;2023-02-20T06:00:20;98426.47;;;0.01;93.42
38267;BME280;24063;51.794;19.578;2023-02-20T06:01:24;98428.52;;;-0.00;93.52
38267;BME280;24063;51.794;19.578;2023-02-20T06:02:31;98424.71;;;-0.01;93.67
38267;BME280;24063;51.794;19.578;2023-02-20T06:03:34;98425.36;;;-0.01;93.65
38267;BME280;24063;51.794;19.578;2023-02-20T06:04:39;98421.47;;;-0.01;93.78
38267;BME280;24063;51.794;19.578;2023-02-20T06:05:41;98421.46;;;0.01;93.85